createdAt,value
2019-04-11T00:02:10.627Z,59.76
2019-04-11T00:04:40.147Z,59.70
2019-04-11T00:07:09.460Z,59.99
2019-04-11T00:09:38.819Z,60.00
2019-04-11T00:12:08.473Z,60.10
2019-04-11T00:14:38.048Z,60.09
2019-04-11T00:17:07.831Z,60.72
2019-04-11T00:19:37.726Z,60.85
2019-04-11T00:22:07.177Z,61.16
2019-04-11T00:24:36.797Z,61.34
2019-04-11T00:27:06.169Z,61.73
2019-04-11T00:29:36.493Z,62.21
2019-04-11T00:32:08.029Z,62.56
2019-04-11T00:34:37.372Z,63.06
2019-04-11T00:37:06.733Z,63.22
2019-04-11T00:39:35.894Z,63.43
2019-04-11T00:42:06.099Z,63.23
2019-04-11T00:44:35.770Z,63.99
2019-04-11T00:47:04.988Z,63.53
2019-04-11T00:49:34.653Z,64.44
2019-04-11T00:52:04.569Z,64.82
2019-04-11T00:54:35.178Z,65.42
2019-04-11T00:57:04.625Z,65.66
2019-04-11T00:59:34.182Z,65.72
2019-04-11T01:02:05.083Z,65.86
2019-04-11T01:04:34.959Z,65.58
2019-04-11T01:07:04.749Z,66.42
2019-04-11T01:09:34.733Z,66.99
2019-04-11T01:12:04.654Z,66.65
2019-04-11T01:14:35.954Z,66.76
2019-04-11T01:17:06.197Z,67.14
2019-04-11T01:19:35.820Z,67.74
2019-04-11T01:22:05.753Z,67.91
2019-04-11T01:24:35.597Z,67.84
2019-04-11T01:27:05.646Z,68.01
2019-04-11T01:29:35.662Z,67.77
2019-04-11T01:32:06.728Z,67.35
2019-04-11T01:34:37.006Z,67.94
2019-04-11T01:37:07.254Z,67.80
2019-04-11T01:39:50.187Z,68.25
2019-04-11T01:42:19.728Z,67.98
2019-04-11T01:44:49.325Z,67.90
2019-04-11T01:47:37.373Z,67.82
2019-04-11T01:50:08.746Z,68.02
2019-04-11T01:52:38.283Z,68.00
2019-04-11T01:55:08.244Z,68.65
2019-04-11T01:57:38.107Z,68.62
2019-04-11T02:00:09.739Z,68.75
2019-04-11T02:02:56.994Z,69.00
2019-04-11T02:05:29.262Z,69.07
2019-04-11T02:07:58.813Z,69.68
2019-04-11T02:10:28.717Z,70.01
2019-04-11T02:12:59.640Z,69.72
2019-04-11T02:15:30.366Z,70.37
2019-04-11T02:17:59.828Z,70.28
2019-04-11T02:20:29.199Z,70.13
2019-04-11T02:23:06.782Z,70.72
2019-04-11T02:25:38.723Z,70.97
2019-04-11T02:28:10.420Z,71.03
2019-04-11T02:30:44.153Z,71.08
2019-04-11T02:33:15.331Z,71.35
2019-04-11T02:35:46.330Z,71.48
2019-04-11T02:38:16.512Z,71.47
2019-04-11T02:40:47.455Z,71.78
2019-04-11T02:43:17.620Z,71.79
2019-04-11T02:46:00.156Z,72.19
2019-04-11T02:48:18.504Z,71.91
2019-04-11T02:50:50.173Z,71.92
2019-04-11T02:53:21.297Z,71.67
2019-04-11T02:55:52.187Z,72.03
2019-04-11T02:58:23.235Z,72.31
2019-04-11T03:00:55.940Z,72.52
2019-04-11T03:03:25.353Z,72.66
2019-04-11T03:05:55.464Z,73.08
2019-04-11T03:08:26.848Z,73.35
2019-04-11T03:10:57.559Z,73.33
2019-04-11T03:13:27.311Z,73.10
2019-04-11T03:16:12.839Z,73.46
2019-04-11T03:18:45.807Z,73.76
2019-04-11T03:21:04.590Z,73.37
2019-04-11T03:23:31.098Z,73.98
2019-04-11T03:26:00.749Z,73.95
2019-04-11T03:28:33.311Z,73.70
2019-04-11T03:31:37.310Z,74.21
2019-04-11T03:37:01.049Z,74.25
2019-04-11T03:38:57.042Z,74.05
2019-04-11T03:41:25.362Z,74.44
2019-04-11T03:43:51.115Z,74.40
2019-04-11T03:46:25.062Z,74.71
2019-04-11T03:48:53.004Z,74.32
2019-04-11T03:51:13.141Z,74.72
2019-04-11T03:56:14.003Z,74.56
2019-04-11T03:58:43.990Z,74.83
2019-04-11T04:01:16.308Z,74.55
2019-04-11T04:03:46.706Z,74.68
2019-04-11T04:06:17.014Z,74.60
2019-04-11T04:08:48.280Z,74.13
2019-04-11T04:11:27.336Z,74.60
2019-04-11T04:13:59.416Z,74.47
2019-04-11T04:16:40.858Z,74.23
2019-04-11T04:19:15.726Z,74.58
2019-04-11T04:21:51.247Z,74.35
2019-04-11T04:24:36.711Z,74.47
2019-04-11T04:27:05.232Z,74.33
2019-04-11T04:29:37.741Z,74.26
2019-04-11T04:32:08.268Z,74.00
2019-04-11T04:34:40.174Z,74.00
2019-04-11T04:37:09.673Z,73.94
2019-04-11T04:39:39.994Z,73.73
2019-04-11T04:42:21.046Z,73.82
2019-04-11T04:44:42.880Z,73.74
2019-04-11T04:47:21.139Z,73.62
2019-04-11T04:49:43.684Z,73.38
2019-04-11T04:52:14.397Z,73.25
2019-04-11T04:54:44.476Z,73.15
2019-04-11T04:57:15.490Z,73.17
2019-04-11T04:59:44.985Z,72.95
2019-04-11T05:02:14.980Z,73.15
2019-04-11T05:04:45.858Z,72.89
2019-04-11T05:07:15.323Z,72.86
2019-04-11T05:09:45.852Z,72.89
2019-04-11T05:12:16.297Z,73.40
2019-04-11T05:14:45.686Z,73.62
2019-04-11T05:17:14.961Z,73.67
2019-04-11T05:19:44.584Z,73.66
2019-04-11T05:22:14.681Z,73.43
2019-04-11T05:24:44.032Z,73.27
2019-04-11T05:27:13.178Z,73.45
2019-04-11T05:29:42.242Z,73.05
2019-04-11T05:32:11.484Z,72.84
2019-04-11T05:34:41.437Z,72.52
2019-04-11T05:37:11.077Z,71.93
2019-04-11T05:39:41.294Z,72.01
2019-04-11T05:42:15.888Z,71.77
2019-04-11T05:44:43.186Z,71.38
2019-04-11T05:47:18.161Z,70.94
2019-04-11T05:49:51.315Z,70.91
2019-04-11T05:52:23.986Z,70.91
2019-04-11T05:54:54.964Z,70.96
2019-04-11T05:57:32.322Z,70.51
2019-04-11T05:59:56.575Z,70.58
2019-04-11T06:02:29.046Z,70.79
2019-04-11T06:05:06.852Z,70.96
2019-04-11T06:07:42.153Z,71.11
2019-04-11T06:10:12.849Z,70.88
2019-04-11T06:12:59.549Z,70.91
2019-04-11T06:15:31.278Z,71.43
2019-04-11T06:18:02.776Z,71.23
2019-04-11T06:20:39.720Z,71.09
2019-04-11T06:23:10.767Z,71.07
2019-04-11T06:25:49.130Z,71.89
2019-04-11T06:28:27.211Z,72.50
2019-04-11T06:31:01.321Z,72.23
2019-04-11T06:33:32.443Z,72.01
2019-04-11T06:36:21.459Z,71.91
2019-04-11T06:38:58.760Z,72.18
2019-04-11T06:41:30.597Z,72.12
2019-04-11T06:44:16.503Z,72.82
2019-04-11T06:46:56.203Z,72.66
2019-04-11T06:49:38.405Z,72.35
2019-04-11T06:52:10.614Z,72.06
2019-04-11T06:54:47.549Z,71.28
2019-04-11T06:57:18.777Z,71.09
2019-04-11T06:59:52.484Z,70.00
2019-04-11T07:02:24.636Z,69.79
2019-04-11T07:05:04.651Z,69.01
2019-04-11T07:07:35.674Z,68.35
2019-04-11T07:10:07.176Z,68.35
2019-04-11T07:12:55.531Z,68.32
2019-04-11T07:15:27.243Z,67.28
2019-04-11T07:18:14.350Z,66.96
2019-04-11T07:20:45.797Z,67.20
2019-04-11T07:23:33.207Z,67.45
2019-04-11T07:26:18.802Z,67.25
2019-04-11T07:28:50.254Z,66.76
2019-04-11T07:31:21.762Z,67.46
2019-04-11T07:34:08.914Z,67.14
2019-04-11T07:36:46.251Z,67.05
2019-04-11T07:39:17.251Z,66.76
2019-04-11T07:41:48.032Z,66.10
2019-04-11T07:44:27.408Z,66.33
2019-04-11T07:47:19.227Z,66.77
2019-04-11T07:49:51.128Z,67.48
2019-04-11T07:52:21.711Z,68.23
2019-04-11T07:54:51.435Z,68.81
2019-04-11T07:57:26.310Z,69.27
2019-04-11T08:00:00.232Z,69.45
2019-04-11T08:02:47.789Z,69.74
2019-04-11T08:05:36.907Z,69.75
2019-04-11T08:08:24.065Z,69.93
2019-04-11T08:11:11.539Z,70.32
2019-04-11T08:13:42.963Z,70.86
2019-04-11T08:16:22.885Z,71.32
2019-04-11T08:19:13.101Z,71.57
2019-04-11T08:21:56.749Z,71.91
2019-04-11T08:24:29.661Z,72.49
2019-04-11T08:27:17.638Z,72.90
2019-04-11T08:29:50.074Z,73.07
2019-04-11T08:32:27.431Z,73.45
2019-04-11T08:35:17.642Z,74.13
2019-04-11T08:38:04.887Z,74.52
2019-04-11T08:40:35.829Z,74.39
2019-04-11T08:43:24.656Z,74.86
2019-04-11T08:45:56.245Z,75.19
2019-04-11T08:48:26.677Z,76.15
2019-04-11T08:51:00.939Z,76.39
2019-04-11T08:53:35.080Z,76.32
2019-04-11T08:56:05.552Z,76.42
2019-04-11T08:58:55.128Z,76.78
2019-04-11T09:01:25.121Z,76.77
2019-04-11T09:04:13.710Z,77.28
2019-04-11T09:06:43.097Z,77.33
2019-04-11T09:09:31.401Z,77.33
2019-04-11T09:12:02.606Z,77.21
2019-04-11T09:14:40.051Z,76.79
2019-04-11T09:17:12.226Z,77.08
2019-04-11T09:19:47.239Z,77.13
2019-04-11T09:22:18.257Z,76.84
2019-04-11T09:25:05.364Z,75.96
2019-04-11T09:27:46.696Z,75.67
2019-04-11T09:30:33.696Z,75.33
2019-04-11T09:33:20.915Z,74.97
2019-04-11T09:35:51.771Z,75.76
2019-04-11T09:38:22.491Z,74.09
2019-04-11T09:41:09.301Z,74.20
2019-04-11T09:43:40.249Z,73.91
2019-04-11T09:46:14.471Z,73.50
2019-04-11T09:48:46.341Z,72.84
2019-04-11T09:51:32.148Z,71.65
2019-04-11T09:54:03.596Z,71.71
2019-04-11T09:56:40.334Z,71.21
2019-04-11T09:59:14.380Z,70.92
2019-04-11T10:02:03.126Z,71.23
2019-04-11T10:04:34.046Z,71.56
2019-04-11T10:07:17.554Z,70.09
2019-04-11T10:09:48.850Z,67.23
2019-04-11T10:12:28.357Z,65.95
2019-04-11T10:14:57.821Z,67.40
2019-04-11T10:17:31.797Z,65.94
2019-04-11T10:20:02.898Z,66.37
2019-04-11T10:22:36.619Z,66.90
2019-04-11T10:25:09.135Z,65.17
2019-04-11T10:27:57.243Z,65.07
2019-04-11T10:30:34.063Z,65.14
2019-04-11T10:33:10.839Z,64.99
2019-04-11T10:35:58.928Z,65.47
2019-04-11T10:38:28.738Z,65.85
2019-04-11T10:41:00.891Z,65.81
2019-04-11T10:43:32.136Z,65.03
2019-04-11T10:46:03.007Z,65.41
2019-04-11T10:48:39.476Z,63.90
2019-04-11T10:51:12.963Z,64.23
2019-04-11T10:53:43.772Z,64.32
2019-04-11T10:56:18.138Z,63.69
2019-04-11T10:58:49.155Z,63.96
2019-04-11T11:01:26.714Z,63.44
2019-04-11T11:03:57.537Z,62.96
2019-04-11T11:06:34.268Z,61.52
2019-04-11T11:09:17.884Z,60.68
2019-04-11T11:11:54.830Z,59.93
2019-04-11T11:14:42.861Z,59.87
2019-04-11T11:17:48.227Z,58.92
2019-04-11T11:20:33.632Z,58.54
2019-04-11T11:22:58.398Z,58.20
2019-04-11T11:25:37.894Z,58.58
2019-04-11T11:28:07.475Z,58.11
2019-04-11T11:30:39.925Z,59.07
2019-04-11T11:33:11.026Z,59.28
2019-04-11T11:35:45.741Z,58.07
2019-04-11T11:38:19.951Z,59.24
2019-04-11T11:41:00.463Z,60.07
2019-04-11T11:43:32.992Z,60.10
2019-04-11T11:46:25.515Z,59.39
2019-04-11T11:48:54.266Z,61.24
2019-04-11T11:51:37.588Z,61.08
2019-04-11T11:54:11.578Z,61.43
2019-04-11T11:56:42.845Z,60.38
2019-04-11T11:59:25.633Z,58.86
2019-04-11T12:01:56.468Z,56.21
2019-04-11T12:04:35.920Z,57.40
2019-04-11T12:07:12.650Z,58.45
2019-04-11T12:09:53.025Z,59.10
2019-04-11T12:12:27.411Z,57.20
2019-04-11T12:15:17.702Z,55.24
2019-04-11T12:17:59.648Z,55.65
2019-04-11T12:20:34.687Z,55.08
2019-04-11T12:23:06.657Z,56.21
2019-04-11T12:25:38.912Z,56.76
2019-04-11T12:28:14.636Z,57.11
2019-04-11T12:30:42.466Z,57.76
2019-04-11T12:33:25.710Z,58.33
2019-04-11T12:35:58.925Z,59.46
2019-04-11T12:38:29.120Z,59.29
2019-04-11T12:41:08.864Z,58.38
2019-04-11T12:43:42.282Z,57.99
2019-04-11T12:46:30.080Z,56.77
2019-04-11T12:49:01.134Z,55.66
2019-04-11T12:51:37.687Z,55.93
2019-04-11T12:54:07.397Z,55.57
2019-04-11T12:56:50.229Z,55.39
2019-04-11T12:59:19.620Z,56.15
2019-04-11T13:01:50.490Z,55.30
2019-04-11T13:04:21.411Z,53.14
2019-04-11T13:06:58.117Z,53.14
2019-04-11T13:09:46.859Z,53.15
2019-04-11T13:12:23.846Z,53.00
2019-04-11T13:15:06.772Z,52.08
2019-04-11T13:17:37.564Z,51.36
2019-04-11T13:20:09.383Z,51.63
2019-04-11T13:22:39.850Z,51.38
2019-04-11T13:25:27.093Z,51.63
2019-04-11T13:27:57.982Z,53.09
2019-04-11T13:30:44.985Z,52.64
2019-04-11T13:33:15.994Z,53.10
2019-04-11T13:36:04.641Z,53.22
2019-04-11T13:38:36.076Z,53.88
2019-04-11T13:41:23.160Z,55.10
2019-04-11T13:43:54.028Z,56.08
2019-04-11T13:46:37.087Z,56.58
2019-04-11T13:49:19.770Z,56.79
2019-04-11T13:52:05.727Z,56.30
2019-04-11T13:54:42.420Z,56.03
2019-04-11T13:57:28.268Z,56.14
2019-04-11T14:00:15.417Z,57.37
2019-04-11T14:02:51.227Z,57.61
2019-04-11T14:05:18.837Z,58.23
2019-04-11T14:07:49.265Z,57.70
2019-04-11T14:10:19.496Z,59.09
2019-04-11T14:12:48.726Z,59.38
2019-04-11T14:15:30.281Z,59.58
2019-04-11T14:18:06.983Z,59.83
2019-04-11T14:20:41.747Z,60.52
2019-04-11T14:23:23.446Z,60.59
2019-04-11T14:26:00.620Z,60.96
2019-04-11T14:28:40.280Z,61.07
2019-04-11T14:31:14.366Z,61.82
2019-04-11T14:33:45.256Z,62.11
2019-04-11T14:36:33.840Z,62.17
2019-04-11T14:39:04.650Z,62.55
2019-04-11T14:41:43.624Z,62.78
2019-04-11T14:44:15.794Z,62.88
2019-04-11T14:46:55.609Z,63.55
2019-04-11T14:49:27.059Z,63.61
2019-04-11T14:52:09.145Z,63.41
2019-04-11T14:54:42.671Z,63.52
2019-04-11T14:57:22.752Z,63.30
2019-04-11T14:59:54.145Z,63.23
2019-04-11T15:02:28.166Z,63.58
2019-04-11T15:05:15.423Z,63.55
2019-04-11T15:07:46.075Z,63.56
2019-04-11T15:10:32.342Z,63.69
2019-04-11T15:13:01.650Z,63.78
2019-04-11T15:15:38.323Z,64.53
2019-04-11T15:18:07.536Z,64.96
2019-04-11T15:20:54.196Z,65.32
2019-04-11T15:23:19.655Z,65.51
2019-04-11T15:26:08.189Z,65.47
2019-04-11T15:28:39.336Z,65.43
2019-04-11T15:31:19.521Z,65.79
2019-04-11T15:33:53.352Z,66.13
2019-04-11T15:36:27.706Z,66.62
2019-04-11T15:39:05.937Z,67.00
2019-04-11T15:41:35.401Z,67.10
2019-04-11T15:44:18.651Z,67.57
2019-04-11T15:46:48.516Z,68.08
2019-04-11T15:49:35.760Z,68.87
2019-04-11T15:52:07.893Z,70.18
2019-04-11T15:54:50.728Z,71.26
2019-04-11T15:57:26.824Z,72.74
2019-04-11T15:59:57.213Z,72.62
2019-04-11T16:02:44.074Z,74.53
2019-04-11T16:05:32.190Z,74.78
2019-04-11T16:08:21.330Z,75.26
2019-04-11T16:10:52.223Z,75.66
2019-04-11T16:13:31.978Z,76.03
2019-04-11T16:16:07.045Z,76.34
2019-04-11T16:18:41.115Z,76.65
2019-04-11T16:21:18.617Z,77.19
2019-04-11T16:23:59.290Z,77.53
2019-04-11T16:26:35.725Z,77.56
2019-04-11T16:29:12.171Z,77.47
2019-04-11T16:31:42.117Z,77.85
2019-04-11T16:34:15.848Z,77.67
2019-04-11T16:36:45.458Z,78.12
2019-04-11T16:39:33.086Z,78.31
2019-04-11T16:42:06.719Z,78.62
2019-04-11T16:44:56.047Z,79.20
2019-04-11T16:47:26.819Z,79.26
2019-04-11T16:49:57.131Z,79.54
2019-04-11T16:52:26.864Z,79.67
2019-04-11T16:54:56.114Z,79.59
2019-04-11T16:57:25.261Z,79.82
2019-04-11T16:59:54.533Z,79.57
2019-04-11T17:02:24.247Z,79.69
2019-04-11T17:04:55.938Z,80.37
2019-04-11T17:07:32.289Z,80.50
2019-04-11T17:10:02.778Z,80.38
2019-04-11T17:12:31.912Z,80.09
2019-04-11T17:15:01.792Z,79.88
2019-04-11T17:17:31.653Z,80.06
2019-04-11T17:20:01.081Z,80.04
2019-04-11T17:22:30.309Z,80.42
2019-04-11T17:24:59.677Z,80.35
2019-04-11T17:27:28.963Z,80.32
2019-04-11T17:29:58.216Z,80.74
2019-04-11T17:32:27.437Z,80.87
2019-04-11T17:34:56.657Z,80.38
2019-04-11T17:37:25.943Z,80.52
2019-04-11T17:39:55.150Z,80.06
2019-04-11T17:42:24.409Z,80.07
2019-04-11T17:44:53.661Z,79.98
2019-04-11T17:47:26.780Z,80.01
2019-04-11T17:49:53.769Z,80.19
2019-04-11T17:52:23.024Z,80.02
2019-04-11T17:54:54.292Z,80.33
2019-04-11T17:57:26.634Z,80.66
2019-04-11T17:59:54.076Z,80.85
2019-04-11T18:02:23.219Z,81.31
2019-04-11T18:04:52.403Z,81.30
2019-04-11T18:07:21.715Z,80.90
2019-04-11T18:09:51.016Z,81.43
2019-04-11T18:12:20.236Z,81.18
2019-04-11T18:14:49.630Z,80.70
2019-04-11T18:17:19.087Z,80.79
2019-04-11T18:19:48.301Z,81.08
2019-04-11T18:22:17.647Z,80.34
2019-04-11T18:24:49.887Z,80.43
2019-04-11T18:27:21.737Z,80.53
2019-04-11T18:29:52.650Z,80.39
2019-04-11T18:32:20.298Z,80.85
2019-04-11T18:34:50.982Z,80.99
2019-04-11T18:37:20.238Z,81.21
2019-04-11T18:39:49.719Z,81.37
2019-04-11T18:42:18.958Z,81.53
2019-04-11T18:44:48.234Z,81.62
2019-04-11T18:47:17.537Z,81.81
2019-04-11T18:49:47.177Z,81.78
2019-04-11T18:52:19.886Z,81.73
2019-04-11T18:54:47.681Z,81.78
2019-04-11T18:57:16.832Z,81.63
2019-04-11T18:59:46.069Z,81.60
2019-04-11T19:02:15.271Z,81.39
2019-04-11T19:04:44.474Z,81.36
2019-04-11T19:07:14.155Z,81.08
2019-04-11T19:09:43.866Z,78.75
2019-04-11T19:12:15.874Z,78.42
2019-04-11T19:14:46.099Z,78.91
2019-04-11T19:17:16.374Z,79.08
2019-04-11T19:19:48.611Z,79.81
2019-04-11T19:22:19.490Z,79.89
2019-04-11T19:24:47.719Z,80.44
2019-04-11T19:27:20.290Z,80.32
2019-04-11T19:29:50.357Z,80.22
2019-04-11T19:32:19.758Z,80.62
2019-04-11T19:34:49.287Z,81.02
2019-04-11T19:37:18.638Z,80.74
2019-04-11T19:39:47.986Z,80.99
2019-04-11T19:42:19.673Z,81.21
2019-04-11T19:44:49.699Z,81.56
2019-04-11T19:47:22.295Z,81.53
2019-04-11T19:49:51.659Z,81.58
2019-04-11T19:52:21.146Z,81.70
2019-04-11T19:54:50.301Z,81.53
2019-04-11T19:57:19.951Z,81.70
2019-04-11T19:59:49.257Z,81.78
2019-04-11T20:02:18.397Z,81.59
2019-04-11T20:04:47.847Z,81.98
2019-04-11T20:07:17.256Z,82.28
2019-04-11T20:09:46.498Z,81.98
2019-04-11T20:12:15.792Z,82.37
2019-04-11T20:14:45.149Z,82.36
2019-04-11T20:17:14.463Z,82.57
2019-04-11T20:19:43.713Z,82.01
2019-04-11T20:22:12.967Z,81.93
2019-04-11T20:24:45.975Z,81.86
2019-04-11T20:27:13.115Z,82.04
2019-04-11T20:29:42.404Z,81.67
2019-04-11T20:32:11.568Z,81.91
2019-04-11T20:34:40.794Z,81.72
2019-04-11T20:37:12.999Z,81.82
2019-04-11T20:39:46.394Z,81.85
2019-04-11T20:42:13.790Z,82.00
2019-04-11T20:44:44.270Z,81.88
2019-04-11T20:47:16.850Z,81.86
2019-04-11T20:49:47.553Z,82.07
2019-04-11T20:52:16.979Z,82.25
2019-04-11T20:54:47.423Z,82.27
2019-04-11T20:57:25.669Z,82.27
2019-04-11T20:59:49.041Z,82.21
2019-04-11T21:02:19.831Z,82.17
2019-04-11T21:04:50.729Z,81.97
2019-04-11T21:07:23.502Z,81.96
2019-04-11T21:09:52.790Z,82.14
2019-04-11T21:12:23.696Z,82.24
2019-04-11T21:14:54.545Z,82.48
2019-04-11T21:17:25.278Z,82.52
2019-04-11T21:19:54.631Z,82.37
2019-04-11T21:22:25.544Z,82.66
2019-04-11T21:24:59.468Z,82.87
2019-04-11T21:27:29.560Z,83.17
2019-04-11T21:30:00.047Z,83.40
2019-04-11T21:32:31.967Z,83.57
2019-04-11T21:35:02.332Z,83.79
2019-04-11T21:37:31.924Z,84.00
2019-04-11T21:40:01.162Z,84.05
2019-04-11T21:42:30.414Z,84.29
2019-04-11T21:44:59.926Z,84.43
2019-04-11T21:47:31.668Z,84.83
2019-04-11T21:50:00.813Z,85.05
2019-04-11T21:52:32.297Z,85.33
2019-04-11T21:55:01.745Z,84.97
2019-04-11T21:57:32.587Z,84.95
2019-04-11T22:00:03.296Z,84.94
2019-04-11T22:02:33.984Z,84.85
2019-04-11T22:05:04.858Z,84.75
2019-04-11T22:07:34.171Z,84.82
2019-04-11T22:10:06.988Z,85.00
2019-04-11T22:12:35.162Z,84.84
2019-04-11T22:15:06.140Z,84.99
2019-04-11T22:17:35.351Z,85.22
2019-04-11T22:20:06.369Z,85.38
2019-04-11T22:22:35.614Z,85.07
2019-04-11T22:25:06.702Z,84.93
2019-04-11T22:27:35.930Z,84.85
2019-04-11T22:30:07.849Z,84.94
2019-04-11T22:32:37.142Z,84.78
2019-04-11T22:35:06.847Z,84.78
2019-04-11T22:37:36.263Z,85.07
2019-04-11T22:40:07.438Z,85.33
2019-04-11T22:42:36.637Z,85.30
2019-04-11T22:45:08.497Z,85.22
2019-04-11T22:47:38.296Z,85.22
2019-04-11T22:50:10.060Z,85.03
2019-04-11T22:52:39.866Z,85.09
2019-04-11T22:55:11.306Z,85.18
2019-04-11T22:57:43.703Z,85.24
2019-04-11T23:00:15.137Z,85.01
2019-04-11T23:03:01.788Z,84.95
2019-04-11T23:05:31.026Z,85.05
2019-04-11T23:08:02.709Z,84.89
2019-04-11T23:10:31.067Z,84.76
2019-04-11T23:13:00.231Z,84.80
2019-04-11T23:15:29.427Z,85.10
2019-04-11T23:17:58.560Z,85.04
2019-04-11T23:20:27.741Z,84.88
2019-04-11T23:22:56.926Z,84.74
2019-04-11T23:25:26.050Z,84.84
2019-04-11T23:27:55.170Z,84.72
2019-04-11T23:30:24.367Z,84.43
2019-04-11T23:32:53.492Z,84.62
2019-04-11T23:35:22.746Z,84.88
2019-04-11T23:37:52.324Z,84.95
2019-04-11T23:40:22.027Z,85.10
2019-04-11T23:42:51.379Z,85.05
2019-04-11T23:45:24.583Z,85.14
2019-04-11T23:47:54.390Z,85.27
2019-04-11T23:50:25.216Z,85.35
2019-04-11T23:52:57.255Z,85.53
2019-04-11T23:55:29.950Z,85.53
2019-04-11T23:57:56.651Z,85.45
